createdAt,value
2018-12-17T00:01:47.691Z,101464.08
2018-12-17T00:04:16.742Z,101463.44
2018-12-17T00:06:45.647Z,101471.42
2018-12-17T00:09:14.777Z,101471.14
2018-12-17T00:11:43.999Z,101470.89
2018-12-17T00:14:12.880Z,101475.72
2018-12-17T00:16:41.948Z,101468.32
2018-12-17T00:19:11.864Z,101467.50
2018-12-17T00:21:41.015Z,101475.60
2018-12-17T00:24:09.935Z,101476.13
2018-12-17T00:26:38.833Z,101472.66
2018-12-17T00:29:07.881Z,101481.84
2018-12-17T00:31:37.210Z,101477.76
2018-12-17T00:34:06.173Z,101474.69
2018-12-17T00:36:35.091Z,101475.62
2018-12-17T00:39:07.183Z,101480.27
2018-12-17T00:41:36.551Z,101474.04
2018-12-17T00:44:05.805Z,101475.04
2018-12-17T00:46:34.825Z,101471.91
2018-12-17T00:49:03.770Z,101465.73
2018-12-17T00:51:32.902Z,101466.26
2018-12-17T00:54:01.922Z,101469.73
2018-12-17T00:56:30.852Z,101469.73
2018-12-17T00:58:59.812Z,101471.88
2018-12-17T01:01:28.686Z,101471.13
2018-12-17T01:03:57.599Z,101471.10
2018-12-17T01:06:26.565Z,101473.84
2018-12-17T01:08:55.515Z,101465.10
2018-12-17T01:11:24.377Z,101466.66
2018-12-17T01:13:53.418Z,101475.91
2018-12-17T01:16:22.401Z,101470.20
2018-12-17T01:18:51.433Z,101473.76
2018-12-17T01:21:20.993Z,101478.66
2018-12-17T01:23:50.426Z,101473.84
2018-12-17T01:26:20.983Z,101472.19
2018-12-17T01:28:50.292Z,101468.16
2018-12-17T01:31:19.264Z,101473.79
2018-12-17T01:33:48.806Z,101474.88
2018-12-17T01:36:17.810Z,101477.79
2018-12-17T01:38:46.859Z,101482.32
2018-12-17T01:41:15.984Z,101482.00
2018-12-17T01:43:45.242Z,101499.03
2018-12-17T01:46:14.186Z,101495.81
2018-12-17T01:48:43.880Z,101496.91
2018-12-17T01:51:12.877Z,101493.41
2018-12-17T01:53:41.777Z,101494.81
2018-12-17T01:56:10.795Z,101497.61
2018-12-17T01:58:39.727Z,101508.34
2018-12-17T02:01:08.674Z,101511.52
2018-12-17T02:03:37.675Z,101509.13
2018-12-17T02:06:06.818Z,101507.44
2018-12-17T02:08:35.959Z,101504.43
2018-12-17T02:11:05.252Z,101504.47
2018-12-17T02:13:34.287Z,101506.86
2018-12-17T02:16:03.178Z,101500.43
2018-12-17T02:18:32.194Z,101503.64
2018-12-17T02:21:01.371Z,101513.06
2018-12-17T02:23:30.570Z,101511.43
2018-12-17T02:25:59.517Z,101517.09
2018-12-17T02:28:28.467Z,101522.69
2018-12-17T02:30:57.379Z,101510.38
2018-12-17T02:33:26.605Z,101512.28
2018-12-17T02:35:55.537Z,101515.81
2018-12-17T02:38:24.527Z,101527.35
2018-12-17T02:40:53.443Z,101530.06
2018-12-17T02:43:22.423Z,101530.32
2018-12-17T02:45:51.928Z,101530.75
2018-12-17T02:48:20.850Z,101532.72
2018-12-17T02:50:49.801Z,101531.22
2018-12-17T02:53:18.670Z,101533.06
2018-12-17T02:55:48.118Z,101535.98
2018-12-17T02:58:17.092Z,101537.41
2018-12-17T03:00:46.143Z,101540.62
2018-12-17T03:03:15.148Z,101545.19
2018-12-17T03:05:44.634Z,101541.44
2018-12-17T03:08:13.646Z,101547.34
2018-12-17T03:10:42.650Z,101546.03
2018-12-17T03:13:11.949Z,101551.91
2018-12-17T03:15:40.846Z,101558.02
2018-12-17T03:18:09.721Z,101555.41
2018-12-17T03:20:39.243Z,101556.19
2018-12-17T03:23:08.539Z,101564.45
2018-12-17T03:25:37.461Z,101565.87
2018-12-17T03:28:06.643Z,101561.03
2018-12-17T03:30:35.664Z,101558.09
2018-12-17T03:33:04.617Z,101559.72
2018-12-17T03:35:33.677Z,101563.47
2018-12-17T03:38:02.591Z,101564.20
2018-12-17T03:40:31.679Z,101566.11
2018-12-17T03:43:00.601Z,101571.15
2018-12-17T03:45:29.549Z,101571.42
2018-12-17T03:47:58.528Z,101580.61
2018-12-17T03:50:27.470Z,101575.81
2018-12-17T03:52:56.538Z,101574.39
2018-12-17T03:55:25.453Z,101579.52
2018-12-17T03:57:54.712Z,101577.61
2018-12-17T04:00:23.876Z,101573.33
2018-12-17T04:02:53.102Z,101579.52
2018-12-17T04:05:22.690Z,101587.47
2018-12-17T04:07:51.607Z,101586.47
2018-12-17T04:10:20.569Z,101588.67
2018-12-17T04:12:49.786Z,101591.78
2018-12-17T04:15:18.786Z,101593.75
2018-12-17T04:17:47.711Z,101589.69
2018-12-17T04:20:16.720Z,101591.72
2018-12-17T04:22:45.645Z,101590.69
2018-12-17T04:25:14.652Z,101578.59
2018-12-17T04:27:43.731Z,101584.47
2018-12-17T04:30:13.042Z,101577.30
2018-12-17T04:32:42.020Z,101580.24
2018-12-17T04:35:11.008Z,101586.56
2018-12-17T04:37:40.425Z,101585.73
2018-12-17T04:40:09.306Z,101587.05
2018-12-17T04:42:38.282Z,101591.13
2018-12-17T04:45:09.112Z,101601.00
2018-12-17T04:47:37.999Z,101591.31
2018-12-17T04:50:07.030Z,101599.63
2018-12-17T04:52:35.970Z,101603.41
2018-12-17T04:55:05.420Z,101599.95
2018-12-17T04:57:34.491Z,101599.45
2018-12-17T05:00:03.921Z,101606.95
2018-12-17T05:02:32.900Z,101608.58
2018-12-17T05:05:01.824Z,101599.87
2018-12-17T05:07:31.068Z,101606.61
2018-12-17T05:10:00.263Z,101613.35
2018-12-17T05:12:33.567Z,101612.03
2018-12-17T05:15:03.788Z,101613.09
2018-12-17T05:17:32.926Z,101613.08
2018-12-17T05:20:01.939Z,101616.09
2018-12-17T05:22:31.259Z,101609.91
2018-12-17T05:25:00.444Z,101619.52
2018-12-17T05:27:29.867Z,101620.63
2018-12-17T05:29:58.844Z,101622.20
2018-12-17T05:32:27.718Z,101628.16
2018-12-17T05:34:56.673Z,101626.52
2018-12-17T05:37:25.922Z,101632.70
2018-12-17T05:39:55.088Z,101634.86
2018-12-17T05:42:23.964Z,101642.63
2018-12-17T05:44:53.075Z,101642.41
2018-12-17T05:47:22.127Z,101654.79
2018-12-17T05:49:51.031Z,101657.69
2018-12-17T05:52:20.294Z,101654.21
2018-12-17T05:54:49.537Z,101657.97
2018-12-17T05:57:18.522Z,101658.52
2018-12-17T05:59:47.453Z,101664.67
2018-12-17T06:02:16.439Z,101659.58
2018-12-17T06:04:45.470Z,101660.61
2018-12-17T06:07:14.340Z,101664.95
2018-12-17T06:09:43.410Z,101664.44
2018-12-17T06:12:12.387Z,101665.25
2018-12-17T06:14:41.367Z,101664.37
2018-12-17T06:17:10.327Z,101668.67
2018-12-17T06:19:39.249Z,101669.75
2018-12-17T06:22:08.230Z,101665.97
2018-12-17T06:24:37.348Z,101670.83
2018-12-17T06:27:06.257Z,101675.70
2018-12-17T06:29:35.681Z,101667.03
2018-12-17T06:32:04.777Z,101675.13
2018-12-17T06:34:33.736Z,101680.23
2018-12-17T06:37:02.714Z,101680.76
2018-12-17T06:39:32.196Z,101684.52
2018-12-17T06:42:01.140Z,101690.75
2018-12-17T06:44:30.047Z,101693.39
2018-12-17T06:46:59.015Z,101698.72
2018-12-17T06:49:28.962Z,101703.64
2018-12-17T06:51:58.172Z,101709.23
2018-12-17T06:54:27.570Z,101711.36
2018-12-17T06:56:56.814Z,101708.93
2018-12-17T06:59:25.780Z,101711.89
2018-12-17T07:01:54.867Z,101706.52
2018-12-17T07:04:23.888Z,101715.91
2018-12-17T07:06:52.906Z,101715.37
2018-12-17T07:09:21.900Z,101720.75
2018-12-17T07:11:50.899Z,101720.72
2018-12-17T07:14:20.141Z,101720.24
2018-12-17T07:16:49.165Z,101737.23
2018-12-17T07:19:18.119Z,101739.61
2018-12-17T07:21:47.095Z,101746.04
2018-12-17T07:24:16.656Z,101744.16
2018-12-17T07:26:45.603Z,101756.77
2018-12-17T07:29:14.517Z,101755.45
2018-12-17T07:31:43.524Z,101757.89
2018-12-17T07:34:12.457Z,101760.05
2018-12-17T07:36:41.385Z,101759.48
2018-12-17T07:39:10.240Z,101762.16
2018-12-17T07:41:39.359Z,101764.88
2018-12-17T07:44:08.279Z,101764.04
2018-12-17T07:46:37.309Z,101773.72
2018-12-17T07:49:06.215Z,101768.66
2018-12-17T07:51:35.254Z,101767.28
2018-12-17T07:54:05.195Z,101766.20
2018-12-17T07:56:34.841Z,101766.14
2018-12-17T07:59:03.857Z,101766.39
2018-12-17T08:01:32.885Z,101760.48
2018-12-17T08:04:01.787Z,101767.15
2018-12-17T08:06:30.745Z,101765.86
2018-12-17T08:09:00.012Z,101767.73
2018-12-17T08:11:29.163Z,101775.79
2018-12-17T08:13:58.057Z,101771.66
2018-12-17T08:16:27.279Z,101766.09
2018-12-17T08:18:57.148Z,101766.34
2018-12-17T08:21:26.477Z,101774.09
2018-12-17T08:23:55.561Z,101770.97
2018-12-17T08:26:24.717Z,101775.69
2018-12-17T08:28:53.623Z,101771.16
2018-12-17T08:31:22.644Z,101773.06
2018-12-17T08:33:51.724Z,101779.27
2018-12-17T08:36:20.652Z,101784.30
2018-12-17T08:38:49.578Z,101781.95
2018-12-17T08:41:18.424Z,101783.84
2018-12-17T08:43:47.380Z,101790.81
2018-12-17T08:46:16.377Z,101792.70
2018-12-17T08:48:45.283Z,101798.11
2018-12-17T08:51:15.014Z,101800.80
2018-12-17T08:53:43.929Z,101798.39
2018-12-17T08:56:13.226Z,101798.14
2018-12-17T08:58:42.209Z,101801.59
2018-12-17T09:01:11.094Z,101801.11
2018-12-17T09:03:40.194Z,101807.23
2018-12-17T09:06:09.218Z,101802.38
2018-12-17T09:08:38.436Z,101802.91
2018-12-17T09:11:07.435Z,101803.44
2018-12-17T09:13:36.348Z,101794.23
2018-12-17T09:16:05.271Z,101799.36
2018-12-17T09:18:34.184Z,101798.83
2018-12-17T09:21:03.799Z,101799.93
2018-12-17T09:23:32.724Z,101807.56
2018-12-17T09:26:01.680Z,101809.92
2018-12-17T09:28:30.578Z,101816.37
2018-12-17T09:30:59.526Z,101813.61
2018-12-17T09:33:28.760Z,101814.24
2018-12-17T09:35:57.985Z,101819.91
2018-12-17T09:38:27.252Z,101827.19
2018-12-17T09:40:56.207Z,101824.47
2018-12-17T09:43:26.027Z,101815.84
2018-12-17T09:45:55.206Z,101823.35
2018-12-17T09:48:24.295Z,101814.11
2018-12-17T09:50:53.288Z,101816.23
2018-12-17T09:53:22.138Z,101814.48
2018-12-17T09:55:51.975Z,101821.52
2018-12-17T09:58:20.949Z,101829.02
2018-12-17T10:00:50.229Z,101831.27
2018-12-17T10:03:19.156Z,101827.22
2018-12-17T10:05:48.099Z,101810.16
2018-12-17T10:08:17.061Z,101812.00
2018-12-17T10:10:45.989Z,101819.63
2018-12-17T10:13:14.940Z,101818.23
2018-12-17T10:15:43.881Z,101829.27
2018-12-17T10:18:13.816Z,101819.83
2018-12-17T10:20:42.867Z,101820.36
2018-12-17T10:23:11.800Z,101824.27
2018-12-17T10:28:19.936Z,101813.97
2018-12-17T10:30:48.801Z,101811.33
2018-12-17T10:33:17.772Z,101807.80
2018-12-17T10:35:46.810Z,101810.48
2018-12-17T10:38:15.754Z,101812.31
2018-12-17T10:40:45.027Z,101816.84
2018-12-17T10:43:14.346Z,101817.36
2018-12-17T10:45:43.345Z,101814.87
2018-12-17T10:48:13.488Z,101812.04
2018-12-17T10:50:42.337Z,101812.27
2018-12-17T10:53:11.259Z,101814.69
2018-12-17T10:55:40.176Z,101808.22
2018-12-17T10:58:09.158Z,101808.02
2018-12-17T11:00:43.752Z,101804.84
2018-12-17T11:03:17.187Z,101799.13
2018-12-17T11:05:46.783Z,101808.48
2018-12-17T11:08:15.966Z,101805.69
2018-12-17T11:10:44.998Z,101802.85
2018-12-17T11:13:13.892Z,101801.81
2018-12-17T11:15:42.773Z,101798.28
2018-12-17T11:18:11.694Z,101799.56
2018-12-17T11:20:40.998Z,101802.12
2018-12-17T11:23:10.914Z,101799.11
2018-12-17T11:25:39.825Z,101794.08
2018-12-17T11:28:08.870Z,101797.97
2018-12-17T11:30:37.840Z,101787.88
2018-12-17T11:33:06.871Z,101791.77
2018-12-17T11:35:35.826Z,101799.34
2018-12-17T11:38:04.856Z,101793.25
2018-12-17T11:40:33.850Z,101795.64
2018-12-17T11:43:02.774Z,101787.25
2018-12-17T11:45:31.670Z,101787.02
2018-12-17T11:48:00.732Z,101781.94
2018-12-17T11:50:29.671Z,101780.52
2018-12-17T11:52:58.636Z,101777.46
2018-12-17T11:55:27.687Z,101783.50
2018-12-17T11:58:15.220Z,101780.81
2018-12-17T12:01:03.824Z,101774.45
2018-12-17T12:03:36.614Z,101771.61
2018-12-17T12:06:05.902Z,101773.04
2018-12-17T12:08:34.880Z,101770.30
2018-12-17T12:11:04.145Z,101778.32
2018-12-17T12:13:33.046Z,101773.92
2018-12-17T12:16:02.106Z,101775.50
2018-12-17T12:18:31.115Z,101778.41
2018-12-17T12:21:00.062Z,101778.56
2018-12-17T12:23:29.126Z,101777.75
2018-12-17T12:25:58.125Z,101777.42
2018-12-17T12:28:27.012Z,101776.95
2018-12-17T12:31:00.444Z,101779.08
2018-12-17T12:33:27.508Z,101774.53
2018-12-17T12:35:58.448Z,101781.80
2018-12-17T12:38:34.068Z,101791.22
2018-12-17T12:41:04.033Z,101785.44
2018-12-17T12:43:33.401Z,101792.50
2018-12-17T12:46:02.768Z,101792.45
2018-12-17T12:48:32.360Z,101791.69
2018-12-17T12:51:02.939Z,101798.59
2018-12-17T12:53:32.011Z,101797.25
2018-12-17T12:56:01.505Z,101803.98
2018-12-17T12:58:30.605Z,101799.27
2018-12-17T13:01:07.383Z,101802.87
2018-12-17T13:03:32.476Z,101805.09
2018-12-17T13:06:02.054Z,101805.93
2018-12-17T13:08:32.231Z,101801.66
2018-12-17T13:11:01.216Z,101804.83
2018-12-17T13:13:30.166Z,101808.59
2018-12-17T13:15:59.337Z,101805.08
2018-12-17T13:18:29.580Z,101807.09
2018-12-17T13:20:59.534Z,101808.11
2018-12-17T13:23:28.447Z,101809.79
2018-12-17T13:25:57.575Z,101813.42
2018-12-17T13:28:26.538Z,101823.42
2018-12-17T13:30:55.895Z,101822.55
2018-12-17T13:33:25.540Z,101820.79
2018-12-17T13:35:55.048Z,101823.48
2018-12-17T13:38:24.660Z,101824.80
2018-12-17T13:40:55.630Z,101829.28
2018-12-17T13:43:24.789Z,101826.24
2018-12-17T13:45:53.874Z,101833.91
2018-12-17T13:48:23.165Z,101834.52
2018-12-17T13:50:52.107Z,101837.09
2018-12-17T13:53:26.913Z,101833.60
2018-12-17T13:55:56.583Z,101833.24
2018-12-17T13:58:27.375Z,101833.03
2018-12-17T14:00:56.279Z,101835.58
2018-12-17T14:03:25.174Z,101844.48
2018-12-17T14:05:54.322Z,101843.83
2018-12-17T14:08:23.347Z,101848.47
2018-12-17T14:10:54.054Z,101852.59
2018-12-17T14:13:23.436Z,101851.12
2018-12-17T14:15:57.816Z,101856.63
2018-12-17T14:18:32.810Z,101861.77
2018-12-17T14:21:07.403Z,101858.77
2018-12-17T14:23:36.983Z,101860.10
2018-12-17T14:26:07.261Z,101854.56
2018-12-17T14:28:36.853Z,101859.58
2018-12-17T14:31:06.398Z,101860.69
2018-12-17T14:33:35.771Z,101863.09
2018-12-17T14:36:08.536Z,101858.23
2018-12-17T14:38:39.675Z,101860.03
2018-12-17T14:41:10.197Z,101865.50
2018-12-17T14:43:40.401Z,101864.67
2018-12-17T14:46:09.558Z,101869.42
2018-12-17T14:48:39.346Z,101865.98
2018-12-17T14:51:09.404Z,101865.95
2018-12-17T14:53:38.806Z,101864.36
2018-12-17T14:56:08.680Z,101863.70
2018-12-17T14:58:44.256Z,101867.52
2018-12-17T15:01:08.892Z,101869.72
2018-12-17T15:03:38.282Z,101872.04
2018-12-17T15:06:07.212Z,101870.46
2018-12-17T15:08:36.094Z,101870.77
2018-12-17T15:11:05.391Z,101880.58
2018-12-17T15:13:34.318Z,101871.36
2018-12-17T15:16:03.199Z,101883.73
2018-12-17T15:18:32.042Z,101879.40
2018-12-17T15:21:01.257Z,101885.92
2018-12-17T15:23:30.147Z,101891.63
2018-12-17T15:25:59.487Z,101888.47
2018-12-17T15:28:28.645Z,101892.42
2018-12-17T15:30:57.726Z,101899.58
2018-12-17T15:33:26.625Z,101901.81
2018-12-17T15:35:55.962Z,101896.58
2018-12-17T15:38:24.990Z,101904.00
2018-12-17T15:40:53.961Z,101901.45
2018-12-17T15:43:22.974Z,101901.00
2018-12-17T15:45:51.896Z,101899.49
2018-12-17T15:48:21.115Z,101900.10
2018-12-17T15:50:50.517Z,101901.92
2018-12-17T15:53:19.412Z,101907.02
2018-12-17T15:55:48.645Z,101909.98
2018-12-17T15:58:17.579Z,101916.25
2018-12-17T16:00:46.588Z,101926.75
2018-12-17T16:03:15.646Z,101926.00
2018-12-17T16:05:44.546Z,101933.23
2018-12-17T16:08:13.425Z,101928.78
2018-12-17T16:10:42.496Z,101925.91
2018-12-17T16:13:11.411Z,101929.45
2018-12-17T16:15:40.382Z,101929.70
2018-12-17T16:18:09.354Z,101934.11
2018-12-17T16:20:38.317Z,101933.95
2018-12-17T16:23:07.255Z,101942.90
2018-12-17T16:25:36.210Z,101945.37
2018-12-17T16:28:05.214Z,101951.67
2018-12-17T16:30:34.104Z,101950.98
2018-12-17T16:33:03.071Z,101957.29
2018-12-17T16:35:31.991Z,101964.81
2018-12-17T16:38:01.377Z,101957.55
2018-12-17T16:40:30.808Z,101952.86
2018-12-17T16:43:00.272Z,101960.00
2018-12-17T16:45:29.170Z,101965.35
2018-12-17T16:47:58.316Z,101969.16
2018-12-17T16:50:27.248Z,101970.16
2018-12-17T16:52:56.502Z,101974.12
2018-12-17T16:55:25.496Z,101974.26
2018-12-17T16:57:54.555Z,101974.94
2018-12-17T17:00:23.462Z,101975.55
2018-12-17T17:02:52.953Z,101975.04
2018-12-17T17:05:22.027Z,101976.23
2018-12-17T17:07:50.973Z,101982.46
2018-12-17T17:10:20.304Z,101986.69
2018-12-17T17:12:49.261Z,101987.33
2018-12-17T17:15:18.233Z,101990.33
2018-12-17T17:17:47.267Z,101998.72
2018-12-17T17:20:16.427Z,101999.70
2018-12-17T17:22:45.348Z,102007.08
2018-12-17T17:25:14.303Z,102003.70
2018-12-17T17:27:43.156Z,101999.27
2018-12-17T17:30:12.306Z,102004.22
2018-12-17T17:32:41.242Z,101999.95
2018-12-17T17:35:10.209Z,102004.74
2018-12-17T17:37:39.162Z,102006.71
2018-12-17T17:40:08.317Z,101996.66
2018-12-17T17:42:37.257Z,102007.62
2018-12-17T17:45:06.683Z,102007.02
2018-12-17T17:47:35.728Z,102009.20
2018-12-17T17:50:05.524Z,102004.83
2018-12-17T17:52:34.459Z,102003.56
2018-12-17T17:55:03.574Z,102005.20
2018-12-17T17:57:32.510Z,102014.52
2018-12-17T18:00:01.736Z,102011.62
2018-12-17T18:02:31.103Z,102011.59
2018-12-17T18:05:00.558Z,102018.98
2018-12-17T18:07:29.533Z,102019.05
2018-12-17T18:09:58.416Z,102021.57
2018-12-17T18:12:27.571Z,102024.45
2018-12-17T18:14:56.876Z,102030.75
2018-12-17T18:17:26.133Z,102030.23
2018-12-17T18:19:55.340Z,102031.06
2018-12-17T18:22:24.240Z,102033.05
2018-12-17T18:24:53.348Z,102029.84
2018-12-17T18:27:22.758Z,102035.61
2018-12-17T18:29:51.806Z,102041.00
2018-12-17T18:32:25.948Z,102043.61
2018-12-17T18:34:51.766Z,102040.70
2018-12-17T18:37:20.610Z,102049.86
2018-12-17T18:39:49.510Z,102049.27
2018-12-17T18:42:19.138Z,102055.10
2018-12-17T18:44:48.151Z,102057.07
2018-12-17T18:47:17.027Z,102053.23
2018-12-17T18:49:45.978Z,102057.14
2018-12-17T18:52:14.869Z,102067.30
2018-12-17T18:54:44.189Z,102072.20
2018-12-17T18:57:13.119Z,102080.13
2018-12-17T18:59:42.022Z,102084.83
2018-12-17T19:02:11.168Z,102093.30
2018-12-17T19:04:40.093Z,102094.03
2018-12-17T19:07:09.188Z,102094.87
2018-12-17T19:09:38.434Z,102097.25
2018-12-17T19:12:08.831Z,102093.52
2018-12-17T19:14:37.754Z,102107.05
2018-12-17T19:17:06.646Z,102103.38
2018-12-17T19:19:36.443Z,102104.98
2018-12-17T19:22:05.607Z,102105.42
2018-12-17T19:24:34.553Z,102107.38
2018-12-17T19:27:03.506Z,102108.80
2018-12-17T19:29:32.400Z,102113.02
2018-12-17T19:32:02.618Z,102111.65
2018-12-17T19:34:31.641Z,102122.79
2018-12-17T19:37:00.569Z,102111.19
2018-12-17T19:39:29.906Z,102121.98
2018-12-17T19:41:58.811Z,102127.70
2018-12-17T19:44:29.112Z,102126.28
2018-12-17T19:46:58.013Z,102128.59
2018-12-17T19:49:26.966Z,102128.22
2018-12-17T19:51:55.842Z,102127.78
2018-12-17T19:54:24.820Z,102130.34
2018-12-17T19:56:53.709Z,102129.20
2018-12-17T19:59:22.677Z,102133.33
2018-12-17T20:01:51.611Z,102131.72
2018-12-17T20:04:20.508Z,102139.28
2018-12-17T20:06:49.484Z,102143.81
2018-12-17T20:09:19.184Z,102144.75
2018-12-17T20:11:48.181Z,102146.36
2018-12-17T20:14:17.687Z,102147.95
2018-12-17T20:16:46.692Z,102158.98
2018-12-17T20:19:15.613Z,102160.72
2018-12-17T20:21:44.633Z,102162.31
2018-12-17T20:24:13.824Z,102155.52
2018-12-17T20:26:42.895Z,102161.18
2018-12-17T20:29:12.705Z,102161.26
2018-12-17T20:31:41.838Z,102154.73
2018-12-17T20:34:11.819Z,102162.06
2018-12-17T20:36:41.440Z,102161.55
2018-12-17T20:39:10.403Z,102156.98
2018-12-17T20:41:39.695Z,102167.44
2018-12-17T20:44:09.416Z,102171.25
2018-12-17T20:46:38.580Z,102170.66
2018-12-17T20:49:08.428Z,102163.42
2018-12-17T20:51:37.705Z,102166.06
2018-12-17T20:54:06.690Z,102167.85
2018-12-17T20:56:35.747Z,102168.47
2018-12-17T20:59:04.671Z,102168.47
2018-12-17T21:01:33.660Z,102177.28
2018-12-17T21:04:02.838Z,102179.63
2018-12-17T21:06:31.736Z,102180.58
2018-12-17T21:09:00.630Z,102180.53
2018-12-17T21:11:29.564Z,102187.59
2018-12-17T21:13:58.552Z,102194.64
2018-12-17T21:16:27.527Z,102187.23
2018-12-17T21:18:56.543Z,102190.23
2018-12-17T21:21:25.749Z,102192.04
2018-12-17T21:23:54.611Z,102191.34
2018-12-17T21:26:23.675Z,102188.63
2018-12-17T21:28:52.601Z,102187.34
2018-12-17T21:31:21.918Z,102198.05
2018-12-17T21:33:50.970Z,102191.70
2018-12-17T21:36:20.375Z,102191.96
2018-12-17T21:38:49.374Z,102189.23
2018-12-17T21:41:19.475Z,102185.87
2018-12-17T21:43:48.383Z,102189.64
2018-12-17T21:46:17.293Z,102184.52
2018-12-17T21:48:46.560Z,102198.23
2018-12-17T21:51:16.238Z,102193.66
2018-12-17T21:53:45.164Z,102196.23
2018-12-17T21:56:14.171Z,102200.78
2018-12-17T21:58:43.846Z,102194.88
2018-12-17T22:01:13.338Z,102196.23
2018-12-17T22:03:42.643Z,102200.92
2018-12-17T22:06:11.612Z,102206.13
2018-12-17T22:08:40.452Z,102197.20
2018-12-17T22:11:09.411Z,102201.47
2018-12-17T22:13:38.660Z,102204.77
2018-12-17T22:16:07.933Z,102208.73
2018-12-17T22:18:37.232Z,102206.56
2018-12-17T22:21:06.770Z,102207.72
2018-12-17T22:23:37.340Z,102214.89
2018-12-17T22:26:06.201Z,102215.63
2018-12-17T22:28:35.204Z,102216.17
2018-12-17T22:31:04.203Z,102224.50
2018-12-17T22:33:33.108Z,102229.69
2018-12-17T22:36:02.669Z,102231.89
2018-12-17T22:38:31.580Z,102231.03
2018-12-17T22:41:00.895Z,102238.45
2018-12-17T22:43:29.800Z,102235.14
2018-12-17T22:45:58.913Z,102240.77
2018-12-17T22:48:28.231Z,102242.39
2018-12-17T22:50:57.370Z,102242.39
2018-12-17T22:53:26.294Z,102244.23
2018-12-17T22:55:56.103Z,102247.22
2018-12-17T22:58:24.983Z,102251.48
2018-12-17T23:00:54.174Z,102253.48
2018-12-17T23:03:26.316Z,102246.11
2018-12-17T23:05:54.177Z,102250.70
2018-12-17T23:08:23.051Z,102254.31
2018-12-17T23:11:08.651Z,102253.41
2018-12-17T23:13:54.269Z,102255.23
2018-12-17T23:16:40.067Z,102257.34
2018-12-17T23:19:07.107Z,102258.97
2018-12-17T23:21:36.175Z,102254.17
2018-12-17T23:24:05.620Z,102251.03
2018-12-17T23:26:34.606Z,102260.13
2018-12-17T23:29:03.978Z,102260.42
2018-12-17T23:31:33.603Z,102255.95
2018-12-17T23:34:02.657Z,102259.95
2018-12-17T23:36:31.899Z,102262.59
2018-12-17T23:39:00.806Z,102258.14
2018-12-17T23:41:29.879Z,102257.22
2018-12-17T23:43:58.975Z,102253.09
2018-12-17T23:46:27.930Z,102263.09
2018-12-17T23:48:57.155Z,102260.75
2018-12-17T23:51:26.210Z,102260.23
2018-12-17T23:53:55.105Z,102267.05
2018-12-17T23:56:24.106Z,102275.14
2018-12-17T23:58:53.019Z,102268.98
